sensor_id;sensor_type;location;lat;lon;timestamp;temperature;humidity
12885;DHT22;6510;51.362;7.370;2023-03-23T00:01:54;9.70;99.90
12885;DHT22;6510;51.362;7.370;2023-03-23T00:04:20;9.70;99.90
12885;DHT22;6510;51.362;7.370;2023-03-23T00:06:46;9.70;99.90
12885;DHT22;6510;51.362;7.370;2023-03-23T00:09:13;9.70;99.90
12885;DHT22;6510;51.362;7.370;2023-03-23T00:11:41;9.70;99.90
12885;DHT22;6510;51.362;7.370;2023-03-23T00:14:07;9.70;99.90
12885;DHT22;6510;51.362;7.370;2023-03-23T00:16:39;9.60;99.90
12885;DHT22;6510;51.362;7.370;2023-03-23T00:19:11;9.70;99.90
12885;DHT22;6510;51.362;7.370;2023-03-23T00:21:41;9.60;99.90
12885;DHT22;6510;51.362;7.370;2023-03-23T00:24:18;9.70;99.90
12885;DHT22;6510;51.362;7.370;2023-03-23T00:26:46;9.70;99.90
12885;DHT22;6510;51.362;7.370;2023-03-23T00:29:13;9.80;99.90
12885;DHT22;6510;51.362;7.370;2023-03-23T00:31:40;9.80;99.90
12885;DHT22;6510;51.362;7.370;2023-03-23T00:34:05;9.80;99.90
12885;DHT22;6510;51.362;7.370;2023-03-23T00:36:32;9.80;99.90
12885;DHT22;6510;51.362;7.370;2023-03-23T00:39:01;9.90;99.90
12885;DHT22;6510;51.362;7.370;2023-03-23T00:41:28;9.90;99.90
12885;DHT22;6510;51.362;7.370;2023-03-23T00:43:57;9.90;99.90
12885;DHT22;6510;51.362;7.370;2023-03-23T00:46:26;10.00;99.90
12885;DHT22;6510;51.362;7.370;2023-03-23T00:48:51;10.00;99.90
12885;DHT22;6510;51.362;7.370;2023-03-23T00:51:18;10.00;99.90
12885;DHT22;6510;51.362;7.370;2023-03-23T00:53:44;10.00;99.90
12885;DHT22;6510;51.362;7.370;2023-03-23T00:56:10;10.10;99.90
12885;DHT22;6510;51.362;7.370;2023-03-23T00:58:36;10.00;99.90
12885;DHT22;6510;51.362;7.370;2023-03-23T01:01:03;10.00;99.90
12885;DHT22;6510;51.362;7.370;2023-03-23T01:03:28;10.10;99.90
12885;DHT22;6510;51.362;7.370;2023-03-23T01:05:55;10.10;99.90
12885;DHT22;6510;51.362;7.370;2023-03-23T01:08:22;10.10;99.90
12885;DHT22;6510;51.362;7.370;2023-03-23T01:10:49;10.10;99.90
12885;DHT22;6510;51.362;7.370;2023-03-23T01:13:16;10.20;99.90
12885;DHT22;6510;51.362;7.370;2023-03-23T01:15:42;10.20;99.90
12885;DHT22;6510;51.362;7.370;2023-03-23T01:18:09;10.20;99.90
12885;DHT22;6510;51.362;7.370;2023-03-23T01:20:36;10.10;99.90
12885;DHT22;6510;51.362;7.370;2023-03-23T01:23:02;10.10;99.90
12885;DHT22;6510;51.362;7.370;2023-03-23T01:25:31;10.20;99.90
12885;DHT22;6510;51.362;7.370;2023-03-23T01:27:58;10.20;99.90
12885;DHT22;6510;51.362;7.370;2023-03-23T01:30:24;10.30;99.90
12885;DHT22;6510;51.362;7.370;2023-03-23T01:32:50;10.30;99.90
12885;DHT22;6510;51.362;7.370;2023-03-23T01:35:17;10.20;99.90
12885;DHT22;6510;51.362;7.370;2023-03-23T01:37:43;10.30;99.90
12885;DHT22;6510;51.362;7.370;2023-03-23T01:40:09;10.20;99.90
12885;DHT22;6510;51.362;7.370;2023-03-23T01:42:36;10.20;99.90
12885;DHT22;6510;51.362;7.370;2023-03-23T01:45:24;10.20;99.90
12885;DHT22;6510;51.362;7.370;2023-03-23T01:48:15;10.10;99.90
12885;DHT22;6510;51.362;7.370;2023-03-23T01:53:12;10.00;99.90
12885;DHT22;6510;51.362;7.370;2023-03-23T01:55:41;10.00;99.90
12885;DHT22;6510;51.362;7.370;2023-03-23T01:58:09;9.90;99.90
12885;DHT22;6510;51.362;7.370;2023-03-23T02:00:37;9.90;99.90
12885;DHT22;6510;51.362;7.370;2023-03-23T02:03:05;9.90;99.90
12885;DHT22;6510;51.362;7.370;2023-03-23T02:05:37;9.90;99.90
12885;DHT22;6510;51.362;7.370;2023-03-23T02:08:04;9.80;99.90
12885;DHT22;6510;51.362;7.370;2023-03-23T02:10:32;9.80;99.90
12885;DHT22;6510;51.362;7.370;2023-03-23T02:13:00;9.80;99.90
12885;DHT22;6510;51.362;7.370;2023-03-23T02:16:18;9.70;99.90
12885;DHT22;6510;51.362;7.370;2023-03-23T02:18:35;9.80;99.90
12885;DHT22;6510;51.362;7.370;2023-03-23T02:24:13;9.80;99.90
12885;DHT22;6510;51.362;7.370;2023-03-23T02:29:45;9.80;99.90
12885;DHT22;6510;51.362;7.370;2023-03-23T02:35:21;9.80;99.90
12885;DHT22;6510;51.362;7.370;2023-03-23T02:38:00;9.70;99.90
12885;DHT22;6510;51.362;7.370;2023-03-23T02:40:33;9.70;99.90
12885;DHT22;6510;51.362;7.370;2023-03-23T02:43:01;9.70;99.90
12885;DHT22;6510;51.362;7.370;2023-03-23T02:45:30;9.80;99.90
12885;DHT22;6510;51.362;7.370;2023-03-23T02:47:56;9.70;99.90
12885;DHT22;6510;51.362;7.370;2023-03-23T02:50:24;9.70;99.90
12885;DHT22;6510;51.362;7.370;2023-03-23T02:52:53;9.70;99.90
12885;DHT22;6510;51.362;7.370;2023-03-23T02:55:21;9.70;99.90
12885;DHT22;6510;51.362;7.370;2023-03-23T02:57:50;9.80;99.90
12885;DHT22;6510;51.362;7.370;2023-03-23T03:00:17;9.70;99.90
12885;DHT22;6510;51.362;7.370;2023-03-23T03:02:48;9.70;99.90
12885;DHT22;6510;51.362;7.370;2023-03-23T03:10:59;9.70;99.90
12885;DHT22;6510;51.362;7.370;2023-03-23T03:19:01;9.80;99.90
12885;DHT22;6510;51.362;7.370;2023-03-23T03:21:30;9.80;99.90
12885;DHT22;6510;51.362;7.370;2023-03-23T03:23:58;9.70;99.90
12885;DHT22;6510;51.362;7.370;2023-03-23T03:26:27;9.80;99.90
12885;DHT22;6510;51.362;7.370;2023-03-23T03:28:54;9.80;99.90
12885;DHT22;6510;51.362;7.370;2023-03-23T03:31:29;9.70;99.90
12885;DHT22;6510;51.362;7.370;2023-03-23T03:33:55;9.70;99.90
12885;DHT22;6510;51.362;7.370;2023-03-23T03:36:25;9.80;99.90
12885;DHT22;6510;51.362;7.370;2023-03-23T03:38:52;9.70;99.90
12885;DHT22;6510;51.362;7.370;2023-03-23T03:41:19;9.70;99.90
12885;DHT22;6510;51.362;7.370;2023-03-23T03:43:45;9.80;99.90
12885;DHT22;6510;51.362;7.370;2023-03-23T03:46:11;9.70;99.90
12885;DHT22;6510;51.362;7.370;2023-03-23T03:48:37;9.70;99.90
12885;DHT22;6510;51.362;7.370;2023-03-23T03:51:02;9.80;99.90
12885;DHT22;6510;51.362;7.370;2023-03-23T03:53:28;9.70;99.90
12885;DHT22;6510;51.362;7.370;2023-03-23T03:55:54;9.80;99.90
12885;DHT22;6510;51.362;7.370;2023-03-23T03:58:26;9.70;99.90
12885;DHT22;6510;51.362;7.370;2023-03-23T04:00:58;9.80;99.90
12885;DHT22;6510;51.362;7.370;2023-03-23T04:03:24;9.80;99.90
12885;DHT22;6510;51.362;7.370;2023-03-23T04:05:51;9.80;99.90
12885;DHT22;6510;51.362;7.370;2023-03-23T04:08:16;9.80;99.90
12885;DHT22;6510;51.362;7.370;2023-03-23T04:10:43;9.80;99.90
12885;DHT22;6510;51.362;7.370;2023-03-23T04:13:08;9.90;99.90
12885;DHT22;6510;51.362;7.370;2023-03-23T04:15:34;9.80;99.90
12885;DHT22;6510;51.362;7.370;2023-03-23T04:17:59;9.90;99.90
12885;DHT22;6510;51.362;7.370;2023-03-23T04:20:25;9.90;99.90
12885;DHT22;6510;51.362;7.370;2023-03-23T04:22:52;9.80;99.90
12885;DHT22;6510;51.362;7.370;2023-03-23T04:25:20;9.80;99.90
12885;DHT22;6510;51.362;7.370;2023-03-23T04:27:50;9.80;99.90
12885;DHT22;6510;51.362;7.370;2023-03-23T04:30:23;9.90;99.90
12885;DHT22;6510;51.362;7.370;2023-03-23T04:32:50;9.80;99.90
12885;DHT22;6510;51.362;7.370;2023-03-23T04:35:18;9.80;99.90
12885;DHT22;6510;51.362;7.370;2023-03-23T04:37:45;9.90;99.90
12885;DHT22;6510;51.362;7.370;2023-03-23T04:40:11;9.80;99.90
12885;DHT22;6510;51.362;7.370;2023-03-23T04:42:41;9.70;99.90
12885;DHT22;6510;51.362;7.370;2023-03-23T04:45:08;9.90;99.90
12885;DHT22;6510;51.362;7.370;2023-03-23T04:47:36;9.80;99.90
12885;DHT22;6510;51.362;7.370;2023-03-23T04:50:10;9.90;99.90
12885;DHT22;6510;51.362;7.370;2023-03-23T04:52:38;9.90;99.90
12885;DHT22;6510;51.362;7.370;2023-03-23T04:55:06;9.80;99.90
12885;DHT22;6510;51.362;7.370;2023-03-23T04:57:32;9.80;99.90
12885;DHT22;6510;51.362;7.370;2023-03-23T04:59:59;9.80;99.90
12885;DHT22;6510;51.362;7.370;2023-03-23T05:02:25;9.80;99.90
12885;DHT22;6510;51.362;7.370;2023-03-23T05:04:50;9.80;99.90
12885;DHT22;6510;51.362;7.370;2023-03-23T05:07:16;9.70;99.90
12885;DHT22;6510;51.362;7.370;2023-03-23T05:09:42;9.80;99.90
12885;DHT22;6510;51.362;7.370;2023-03-23T05:12:11;9.70;99.90
12885;DHT22;6510;51.362;7.370;2023-03-23T05:14:40;9.80;99.90
12885;DHT22;6510;51.362;7.370;2023-03-23T05:17:06;9.80;99.90
12885;DHT22;6510;51.362;7.370;2023-03-23T05:19:32;9.80;99.90
12885;DHT22;6510;51.362;7.370;2023-03-23T05:21:59;9.90;99.90
12885;DHT22;6510;51.362;7.370;2023-03-23T05:24:32;9.90;99.90
12885;DHT22;6510;51.362;7.370;2023-03-23T05:27:01;9.90;99.90
12885;DHT22;6510;51.362;7.370;2023-03-23T05:29:27;9.80;99.90
12885;DHT22;6510;51.362;7.370;2023-03-23T05:31:56;9.80;99.90
12885;DHT22;6510;51.362;7.370;2023-03-23T05:34:28;9.90;99.90
12885;DHT22;6510;51.362;7.370;2023-03-23T05:36:55;9.80;99.90
12885;DHT22;6510;51.362;7.370;2023-03-23T05:39:21;9.80;99.90
12885;DHT22;6510;51.362;7.370;2023-03-23T05:41:47;9.90;99.90
12885;DHT22;6510;51.362;7.370;2023-03-23T05:44:12;9.90;99.90
12885;DHT22;6510;51.362;7.370;2023-03-23T05:46:41;9.90;99.90
12885;DHT22;6510;51.362;7.370;2023-03-23T05:49:07;10.00;99.90
12885;DHT22;6510;51.362;7.370;2023-03-23T05:51:33;10.10;99.90
12885;DHT22;6510;51.362;7.370;2023-03-23T05:53:58;10.10;99.90
12885;DHT22;6510;51.362;7.370;2023-03-23T05:56:24;10.10;99.90
12885;DHT22;6510;51.362;7.370;2023-03-23T05:58:50;10.10;99.90
12885;DHT22;6510;51.362;7.370;2023-03-23T06:01:15;10.10;99.90
12885;DHT22;6510;51.362;7.370;2023-03-23T06:03:41;10.20;99.90
12885;DHT22;6510;51.362;7.370;2023-03-23T06:06:10;10.20;99.90
12885;DHT22;6510;51.362;7.370;2023-03-23T06:08:37;10.20;99.90
12885;DHT22;6510;51.362;7.370;2023-03-23T06:11:03;10.30;99.90
12885;DHT22;6510;51.362;7.370;2023-03-23T06:13:29;10.30;99.90
12885;DHT22;6510;51.362;7.370;2023-03-23T06:15:55;10.30;99.90
12885;DHT22;6510;51.362;7.370;2023-03-23T06:18:24;10.30;99.90
12885;DHT22;6510;51.362;7.370;2023-03-23T06:20:50;10.30;99.90
12885;DHT22;6510;51.362;7.370;2023-03-23T06:23:16;10.30;99.90
12885;DHT22;6510;51.362;7.370;2023-03-23T06:25:43;10.30;99.90
12885;DHT22;6510;51.362;7.370;2023-03-23T06:28:09;10.30;99.90
12885;DHT22;6510;51.362;7.370;2023-03-23T06:30:36;10.30;99.90
12885;DHT22;6510;51.362;7.370;2023-03-23T06:33:02;10.40;99.90
12885;DHT22;6510;51.362;7.370;2023-03-23T06:35:31;10.40;99.90
12885;DHT22;6510;51.362;7.370;2023-03-23T06:37:57;10.50;99.90
12885;DHT22;6510;51.362;7.370;2023-03-23T06:40:27;10.50;99.90
12885;DHT22;6510;51.362;7.370;2023-03-23T06:42:54;10.40;99.90
12885;DHT22;6510;51.362;7.370;2023-03-23T06:45:20;10.50;99.90
12885;DHT22;6510;51.362;7.370;2023-03-23T06:47:46;10.50;99.90
12885;DHT22;6510;51.362;7.370;2023-03-23T06:50:15;10.60;99.90
12885;DHT22;6510;51.362;7.370;2023-03-23T06:52:41;10.60;99.90
12885;DHT22;6510;51.362;7.370;2023-03-23T06:55:10;10.70;99.90
12885;DHT22;6510;51.362;7.370;2023-03-23T06:57:36;10.60;99.90
12885;DHT22;6510;51.362;7.370;2023-03-23T07:00:03;10.70;99.90
12885;DHT22;6510;51.362;7.370;2023-03-23T07:02:31;10.70;99.90
12885;DHT22;6510;51.362;7.370;2023-03-23T07:04:57;10.70;99.90
12885;DHT22;6510;51.362;7.370;2023-03-23T07:07:22;10.70;99.90
12885;DHT22;6510;51.362;7.370;2023-03-23T07:09:48;10.70;99.90
12885;DHT22;6510;51.362;7.370;2023-03-23T07:12:14;10.80;99.90
12885;DHT22;6510;51.362;7.370;2023-03-23T07:14:39;10.80;99.90
12885;DHT22;6510;51.362;7.370;2023-03-23T07:17:05;10.80;99.90
12885;DHT22;6510;51.362;7.370;2023-03-23T07:19:32;10.80;99.90
12885;DHT22;6510;51.362;7.370;2023-03-23T07:21:58;10.90;99.90
12885;DHT22;6510;51.362;7.370;2023-03-23T07:24:24;10.90;99.90
12885;DHT22;6510;51.362;7.370;2023-03-23T07:26:50;10.90;99.90
12885;DHT22;6510;51.362;7.370;2023-03-23T07:29:16;11.00;99.90
12885;DHT22;6510;51.362;7.370;2023-03-23T07:31:42;11.00;99.90
12885;DHT22;6510;51.362;7.370;2023-03-23T07:34:08;11.00;99.90
12885;DHT22;6510;51.362;7.370;2023-03-23T07:36:33;11.00;99.90
12885;DHT22;6510;51.362;7.370;2023-03-23T07:39:03;11.10;99.90
12885;DHT22;6510;51.362;7.370;2023-03-23T07:41:31;11.10;99.90
12885;DHT22;6510;51.362;7.370;2023-03-23T07:43:57;11.30;99.90
12885;DHT22;6510;51.362;7.370;2023-03-23T07:46:23;11.30;99.90
12885;DHT22;6510;51.362;7.370;2023-03-23T07:48:48;11.40;99.90
12885;DHT22;6510;51.362;7.370;2023-03-23T07:51:15;11.40;99.90
12885;DHT22;6510;51.362;7.370;2023-03-23T07:53:42;11.40;99.90
12885;DHT22;6510;51.362;7.370;2023-03-23T07:56:10;11.40;99.90
12885;DHT22;6510;51.362;7.370;2023-03-23T07:58:37;11.40;99.90
12885;DHT22;6510;51.362;7.370;2023-03-23T08:01:03;11.40;99.90
12885;DHT22;6510;51.362;7.370;2023-03-23T08:03:29;11.40;99.90
12885;DHT22;6510;51.362;7.370;2023-03-23T08:05:58;11.50;99.90
12885;DHT22;6510;51.362;7.370;2023-03-23T08:08:24;11.50;99.90
12885;DHT22;6510;51.362;7.370;2023-03-23T08:10:50;11.40;99.90
12885;DHT22;6510;51.362;7.370;2023-03-23T08:13:16;11.50;99.90
12885;DHT22;6510;51.362;7.370;2023-03-23T08:15:42;11.50;99.90
12885;DHT22;6510;51.362;7.370;2023-03-23T08:18:09;11.50;99.90
12885;DHT22;6510;51.362;7.370;2023-03-23T08:20:35;11.50;99.90
12885;DHT22;6510;51.362;7.370;2023-03-23T08:23:02;11.40;99.90
12885;DHT22;6510;51.362;7.370;2023-03-23T08:25:28;11.40;99.90
12885;DHT22;6510;51.362;7.370;2023-03-23T08:27:57;11.50;99.90
12885;DHT22;6510;51.362;7.370;2023-03-23T08:30:23;11.50;99.90
12885;DHT22;6510;51.362;7.370;2023-03-23T08:32:51;11.50;99.90
12885;DHT22;6510;51.362;7.370;2023-03-23T08:35:18;11.60;99.90
12885;DHT22;6510;51.362;7.370;2023-03-23T08:37:44;11.60;99.90
12885;DHT22;6510;51.362;7.370;2023-03-23T08:40:13;11.70;99.90
12885;DHT22;6510;51.362;7.370;2023-03-23T08:42:41;11.80;99.90
12885;DHT22;6510;51.362;7.370;2023-03-23T08:45:11;11.90;99.90
12885;DHT22;6510;51.362;7.370;2023-03-23T08:47:38;11.80;99.90
12885;DHT22;6510;51.362;7.370;2023-03-23T08:50:05;11.90;99.90
12885;DHT22;6510;51.362;7.370;2023-03-23T08:52:31;11.90;99.90
12885;DHT22;6510;51.362;7.370;2023-03-23T08:54:56;11.90;99.90
12885;DHT22;6510;51.362;7.370;2023-03-23T08:57:23;11.80;99.90
12885;DHT22;6510;51.362;7.370;2023-03-23T08:59:49;11.90;99.90
12885;DHT22;6510;51.362;7.370;2023-03-23T09:02:15;12.00;99.90
12885;DHT22;6510;51.362;7.370;2023-03-23T09:04:42;12.10;99.90
12885;DHT22;6510;51.362;7.370;2023-03-23T09:07:09;12.10;99.90
12885;DHT22;6510;51.362;7.370;2023-03-23T09:09:36;12.00;99.90
12885;DHT22;6510;51.362;7.370;2023-03-23T09:12:03;12.10;99.90
12885;DHT22;6510;51.362;7.370;2023-03-23T09:14:28;12.10;99.90
12885;DHT22;6510;51.362;7.370;2023-03-23T09:16:54;12.00;99.90
12885;DHT22;6510;51.362;7.370;2023-03-23T09:19:19;11.60;99.90
12885;DHT22;6510;51.362;7.370;2023-03-23T09:21:46;11.40;99.90
12885;DHT22;6510;51.362;7.370;2023-03-23T09:24:12;11.20;99.90
12885;DHT22;6510;51.362;7.370;2023-03-23T09:26:37;11.20;99.90
12885;DHT22;6510;51.362;7.370;2023-03-23T09:29:03;11.20;99.90
12885;DHT22;6510;51.362;7.370;2023-03-23T09:31:29;11.20;99.90
12885;DHT22;6510;51.362;7.370;2023-03-23T09:33:57;11.20;99.90
12885;DHT22;6510;51.362;7.370;2023-03-23T09:36:24;11.40;99.90
12885;DHT22;6510;51.362;7.370;2023-03-23T09:38:51;11.50;99.90
12885;DHT22;6510;51.362;7.370;2023-03-23T09:44:12;11.70;99.90
12885;DHT22;6510;51.362;7.370;2023-03-23T09:46:59;11.80;99.90
12885;DHT22;6510;51.362;7.370;2023-03-23T09:49:43;11.80;99.90
12885;DHT22;6510;51.362;7.370;2023-03-23T09:52:14;11.90;99.90
12885;DHT22;6510;51.362;7.370;2023-03-23T09:54:49;11.90;99.90
12885;DHT22;6510;51.362;7.370;2023-03-23T10:00:24;12.20;99.90
12885;DHT22;6510;51.362;7.370;2023-03-23T10:03:10;12.30;99.90
12885;DHT22;6510;51.362;7.370;2023-03-23T10:05:44;12.30;99.90
12885;DHT22;6510;51.362;7.370;2023-03-23T10:08:20;12.40;99.90
12885;DHT22;6510;51.362;7.370;2023-03-23T10:17:03;12.90;99.90
12885;DHT22;6510;51.362;7.370;2023-03-23T10:22:35;13.50;99.90
12885;DHT22;6510;51.362;7.370;2023-03-23T10:32:56;13.40;99.90
12885;DHT22;6510;51.362;7.370;2023-03-23T10:35:33;12.90;99.90
12885;DHT22;6510;51.362;7.370;2023-03-23T10:38:04;12.20;99.90
12885;DHT22;6510;51.362;7.370;2023-03-23T10:40:31;11.70;99.90
12885;DHT22;6510;51.362;7.370;2023-03-23T10:43:00;11.50;99.90
12885;DHT22;6510;51.362;7.370;2023-03-23T10:45:28;11.00;99.90
12885;DHT22;6510;51.362;7.370;2023-03-23T10:48:33;10.50;99.90
12885;DHT22;6510;51.362;7.370;2023-03-23T10:51:03;9.90;99.90
12885;DHT22;6510;51.362;7.370;2023-03-23T10:53:43;9.80;99.90
12885;DHT22;6510;51.362;7.370;2023-03-23T10:56:36;9.90;99.90
12885;DHT22;6510;51.362;7.370;2023-03-23T10:59:26;10.10;99.90
12885;DHT22;6510;51.362;7.370;2023-03-23T11:01:54;9.70;99.90
12885;DHT22;6510;51.362;7.370;2023-03-23T11:04:20;9.50;99.90
12885;DHT22;6510;51.362;7.370;2023-03-23T11:06:52;9.60;99.90
12885;DHT22;6510;51.362;7.370;2023-03-23T11:09:21;9.70;99.90
12885;DHT22;6510;51.362;7.370;2023-03-23T11:11:57;9.60;99.90
12885;DHT22;6510;51.362;7.370;2023-03-23T11:14:32;9.50;99.90
12885;DHT22;6510;51.362;7.370;2023-03-23T11:17:02;9.40;99.90
12885;DHT22;6510;51.362;7.370;2023-03-23T11:19:30;9.40;99.90
12885;DHT22;6510;51.362;7.370;2023-03-23T11:22:08;9.40;99.90
12885;DHT22;6510;51.362;7.370;2023-03-23T11:24:43;9.30;99.90
12885;DHT22;6510;51.362;7.370;2023-03-23T11:27:10;9.50;99.90
12885;DHT22;6510;51.362;7.370;2023-03-23T11:29:45;9.40;99.90
12885;DHT22;6510;51.362;7.370;2023-03-23T11:32:14;9.50;99.90
12885;DHT22;6510;51.362;7.370;2023-03-23T11:34:49;9.40;99.90
12885;DHT22;6510;51.362;7.370;2023-03-23T11:37:41;9.40;99.90
12885;DHT22;6510;51.362;7.370;2023-03-23T11:45:19;9.30;99.90
12885;DHT22;6510;51.362;7.370;2023-03-23T11:50:45;9.20;99.90
12885;DHT22;6510;51.362;7.370;2023-03-23T11:56:11;9.40;99.90
12885;DHT22;6510;51.362;7.370;2023-03-23T11:58:38;9.40;99.90
12885;DHT22;6510;51.362;7.370;2023-03-23T12:01:11;9.40;99.90
12885;DHT22;6510;51.362;7.370;2023-03-23T12:06:34;9.30;99.90
12885;DHT22;6510;51.362;7.370;2023-03-23T12:11:52;9.20;99.90
12885;DHT22;6510;51.362;7.370;2023-03-23T12:14:47;9.40;99.90
12885;DHT22;6510;51.362;7.370;2023-03-23T12:17:20;9.40;99.90
12885;DHT22;6510;51.362;7.370;2023-03-23T12:25:08;9.60;99.90
12885;DHT22;6510;51.362;7.370;2023-03-23T12:33:22;10.50;99.90
12885;DHT22;6510;51.362;7.370;2023-03-23T12:39:45;10.30;99.90
12885;DHT22;6510;51.362;7.370;2023-03-23T12:42:16;10.30;99.90
12885;DHT22;6510;51.362;7.370;2023-03-23T12:44:53;10.20;99.90
12885;DHT22;6510;51.362;7.370;2023-03-23T12:55:37;10.10;99.90
12885;DHT22;6510;51.362;7.370;2023-03-23T12:58:20;10.00;99.90
12885;DHT22;6510;51.362;7.370;2023-03-23T13:01:00;10.00;99.90
12885;DHT22;6510;51.362;7.370;2023-03-23T13:03:33;9.90;99.90
12885;DHT22;6510;51.362;7.370;2023-03-23T13:06:22;10.10;99.90
12885;DHT22;6510;51.362;7.370;2023-03-23T13:11:33;10.50;99.90
12885;DHT22;6510;51.362;7.370;2023-03-23T13:14:09;10.50;99.90
12885;DHT22;6510;51.362;7.370;2023-03-23T13:16:46;10.50;99.90
12885;DHT22;6510;51.362;7.370;2023-03-23T13:19:39;10.30;99.90
12885;DHT22;6510;51.362;7.370;2023-03-23T13:24:57;10.40;99.90
12885;DHT22;6510;51.362;7.370;2023-03-23T13:27:28;10.80;99.90
12885;DHT22;6510;51.362;7.370;2023-03-23T13:29:55;11.10;99.90
12885;DHT22;6510;51.362;7.370;2023-03-23T13:32:36;11.10;99.90
12885;DHT22;6510;51.362;7.370;2023-03-23T13:35:11;11.00;99.90
12885;DHT22;6510;51.362;7.370;2023-03-23T13:37:42;11.10;99.90
12885;DHT22;6510;51.362;7.370;2023-03-23T13:42:52;11.00;99.90
12885;DHT22;6510;51.362;7.370;2023-03-23T13:48:23;10.90;99.90
12885;DHT22;6510;51.362;7.370;2023-03-23T13:50:51;10.80;99.90
12885;DHT22;6510;51.362;7.370;2023-03-23T13:56:20;10.70;99.90
12885;DHT22;6510;51.362;7.370;2023-03-23T13:58:52;10.70;99.90
12885;DHT22;6510;51.362;7.370;2023-03-23T14:01:32;10.70;99.90
12885;DHT22;6510;51.362;7.370;2023-03-23T14:03:59;10.80;99.90
12885;DHT22;6510;51.362;7.370;2023-03-23T14:06:33;10.90;99.90
12885;DHT22;6510;51.362;7.370;2023-03-23T14:09:06;10.90;99.90
12885;DHT22;6510;51.362;7.370;2023-03-23T14:11:32;10.70;99.90
12885;DHT22;6510;51.362;7.370;2023-03-23T14:14:07;10.70;99.90
12885;DHT22;6510;51.362;7.370;2023-03-23T14:16:37;10.70;99.90
12885;DHT22;6510;51.362;7.370;2023-03-23T14:19:13;10.80;99.90
12885;DHT22;6510;51.362;7.370;2023-03-23T14:21:42;10.80;99.90
12885;DHT22;6510;51.362;7.370;2023-03-23T14:26:49;10.80;99.90
12885;DHT22;6510;51.362;7.370;2023-03-23T14:29:18;10.80;99.90
12885;DHT22;6510;51.362;7.370;2023-03-23T14:31:52;10.90;99.90
12885;DHT22;6510;51.362;7.370;2023-03-23T14:34:20;11.10;99.90
12885;DHT22;6510;51.362;7.370;2023-03-23T14:36:47;11.20;99.90
12885;DHT22;6510;51.362;7.370;2023-03-23T14:41:48;11.20;99.90
12885;DHT22;6510;51.362;7.370;2023-03-23T14:44:17;11.60;99.90
12885;DHT22;6510;51.362;7.370;2023-03-23T14:46:44;11.80;99.90
12885;DHT22;6510;51.362;7.370;2023-03-23T14:49:13;11.50;99.90
12885;DHT22;6510;51.362;7.370;2023-03-23T14:51:48;11.40;99.90
12885;DHT22;6510;51.362;7.370;2023-03-23T14:54:14;12.80;99.90
12885;DHT22;6510;51.362;7.370;2023-03-23T14:56:40;13.10;99.90
12885;DHT22;6510;51.362;7.370;2023-03-23T14:59:06;13.70;99.90
12885;DHT22;6510;51.362;7.370;2023-03-23T15:01:36;12.60;99.90
12885;DHT22;6510;51.362;7.370;2023-03-23T15:04:10;12.40;99.90
12885;DHT22;6510;51.362;7.370;2023-03-23T15:06:38;12.40;99.90
12885;DHT22;6510;51.362;7.370;2023-03-23T15:09:09;12.20;99.90
12885;DHT22;6510;51.362;7.370;2023-03-23T15:11:37;12.30;99.90
12885;DHT22;6510;51.362;7.370;2023-03-23T15:14:29;12.20;99.90
12885;DHT22;6510;51.362;7.370;2023-03-23T15:16:57;11.90;99.90
12885;DHT22;6510;51.362;7.370;2023-03-23T15:19:32;11.90;99.90
12885;DHT22;6510;51.362;7.370;2023-03-23T15:22:25;12.00;99.90
12885;DHT22;6510;51.362;7.370;2023-03-23T15:24:53;12.10;99.90
12885;DHT22;6510;51.362;7.370;2023-03-23T15:27:39;12.20;99.90
12885;DHT22;6510;51.362;7.370;2023-03-23T15:30:32;12.20;99.90
12885;DHT22;6510;51.362;7.370;2023-03-23T15:33:09;11.90;99.90
12885;DHT22;6510;51.362;7.370;2023-03-23T15:35:37;11.60;99.90
12885;DHT22;6510;51.362;7.370;2023-03-23T15:38:05;11.50;99.90
12885;DHT22;6510;51.362;7.370;2023-03-23T15:40:34;11.60;99.90
12885;DHT22;6510;51.362;7.370;2023-03-23T15:43:24;11.80;99.90
12885;DHT22;6510;51.362;7.370;2023-03-23T15:48:47;11.80;99.90
12885;DHT22;6510;51.362;7.370;2023-03-23T15:51:13;11.80;99.90
12885;DHT22;6510;51.362;7.370;2023-03-23T15:53:41;11.80;99.90
12885;DHT22;6510;51.362;7.370;2023-03-23T15:56:08;11.70;99.90
12885;DHT22;6510;51.362;7.370;2023-03-23T15:58:35;11.80;99.90
12885;DHT22;6510;51.362;7.370;2023-03-23T16:01:13;11.80;99.90
12885;DHT22;6510;51.362;7.370;2023-03-23T16:03:54;11.90;99.90
12885;DHT22;6510;51.362;7.370;2023-03-23T16:06:23;11.70;99.90
12885;DHT22;6510;51.362;7.370;2023-03-23T16:08:49;11.60;99.90
12885;DHT22;6510;51.362;7.370;2023-03-23T16:11:16;11.50;99.90
12885;DHT22;6510;51.362;7.370;2023-03-23T16:13:43;11.40;99.90
12885;DHT22;6510;51.362;7.370;2023-03-23T16:16:18;11.40;99.90
12885;DHT22;6510;51.362;7.370;2023-03-23T16:18:45;11.40;99.90
12885;DHT22;6510;51.362;7.370;2023-03-23T16:21:11;11.40;99.90
12885;DHT22;6510;51.362;7.370;2023-03-23T16:23:36;11.30;99.90
12885;DHT22;6510;51.362;7.370;2023-03-23T16:26:03;11.30;99.90
12885;DHT22;6510;51.362;7.370;2023-03-23T16:28:28;11.30;99.90
12885;DHT22;6510;51.362;7.370;2023-03-23T16:30:54;11.30;99.90
12885;DHT22;6510;51.362;7.370;2023-03-23T16:33:19;11.30;99.90
12885;DHT22;6510;51.362;7.370;2023-03-23T16:35:45;11.20;99.90
12885;DHT22;6510;51.362;7.370;2023-03-23T16:38:13;11.30;99.90
12885;DHT22;6510;51.362;7.370;2023-03-23T16:40:41;11.30;99.90
12885;DHT22;6510;51.362;7.370;2023-03-23T16:43:08;11.30;99.90
12885;DHT22;6510;51.362;7.370;2023-03-23T16:45:34;11.20;99.90
12885;DHT22;6510;51.362;7.370;2023-03-23T16:48:00;11.30;99.90
12885;DHT22;6510;51.362;7.370;2023-03-23T16:50:27;11.20;99.90
12885;DHT22;6510;51.362;7.370;2023-03-23T16:52:54;11.20;99.90
12885;DHT22;6510;51.362;7.370;2023-03-23T16:55:19;11.20;99.90
12885;DHT22;6510;51.362;7.370;2023-03-23T16:57:46;11.20;99.90
12885;DHT22;6510;51.362;7.370;2023-03-23T17:00:15;11.20;99.90
12885;DHT22;6510;51.362;7.370;2023-03-23T17:02:45;11.20;99.90
12885;DHT22;6510;51.362;7.370;2023-03-23T17:05:12;11.10;99.90
12885;DHT22;6510;51.362;7.370;2023-03-23T17:07:39;11.10;99.90
12885;DHT22;6510;51.362;7.370;2023-03-23T17:10:07;11.10;99.90
12885;DHT22;6510;51.362;7.370;2023-03-23T17:12:33;11.10;99.90
12885;DHT22;6510;51.362;7.370;2023-03-23T17:14:59;11.00;99.90
12885;DHT22;6510;51.362;7.370;2023-03-23T17:17:25;11.00;99.90
12885;DHT22;6510;51.362;7.370;2023-03-23T17:19:51;11.00;99.90
12885;DHT22;6510;51.362;7.370;2023-03-23T17:22:17;11.00;99.90
12885;DHT22;6510;51.362;7.370;2023-03-23T17:24:42;10.90;99.90
12885;DHT22;6510;51.362;7.370;2023-03-23T17:27:08;10.90;99.90
12885;DHT22;6510;51.362;7.370;2023-03-23T17:29:34;10.90;99.90
12885;DHT22;6510;51.362;7.370;2023-03-23T17:32:00;10.90;99.90
12885;DHT22;6510;51.362;7.370;2023-03-23T17:34:25;10.90;99.90
12885;DHT22;6510;51.362;7.370;2023-03-23T17:36:51;10.90;99.90
12885;DHT22;6510;51.362;7.370;2023-03-23T17:39:17;11.00;99.90
12885;DHT22;6510;51.362;7.370;2023-03-23T17:41:42;11.00;99.90
12885;DHT22;6510;51.362;7.370;2023-03-23T17:44:08;11.10;99.90
12885;DHT22;6510;51.362;7.370;2023-03-23T17:46:34;11.10;99.90
12885;DHT22;6510;51.362;7.370;2023-03-23T17:48:59;11.20;99.90
12885;DHT22;6510;51.362;7.370;2023-03-23T17:51:25;11.10;99.90
12885;DHT22;6510;51.362;7.370;2023-03-23T17:53:51;11.20;99.90